Highley, United Kingdom
Current Conditions -  °F | °C
As of 12:50 AM on Wednesday 22 Oct 2014 (Local Time) from EGBB Reporting Station
Few Clouds Few Clouds  
Wind Chill: 41°   Ceiling: Unl
Heat Index: 45°   Visibility: 6mi
Dew Point: 34°   Wind: 7mph
Humidity: 66%   Direction: 250°WSW
Pressure: 30.15"   Gusts: NA
Location:  52.45°N, 2.38°W
Report Text: EGBB 212350Z 25006KT 9999 FEW046 07/01 Q1021
Loading
Personal Weather Stations






























Interactive Weather Map New forecast layout! Learn more

10-Day Weather Forecast

Advertisements
Track Severe Weather on mobile